createdAt,value
2018-01-01T00:00:37.097Z,997.90
2018-01-01T00:01:37.075Z,997.92
2018-01-01T00:02:37.053Z,997.96
2018-01-01T00:03:37.031Z,997.92
2018-01-01T00:04:37.007Z,997.87
2018-01-01T00:05:36.986Z,997.80
2018-01-01T00:06:36.963Z,997.82
2018-01-01T00:07:36.942Z,997.78
2018-01-01T00:08:36.918Z,997.82
2018-01-01T00:09:36.895Z,997.79
2018-01-01T00:10:36.874Z,997.71
2018-01-01T00:11:36.850Z,997.72
2018-01-01T00:12:36.828Z,997.69
2018-01-01T00:13:36.805Z,997.68
2018-01-01T00:14:36.783Z,997.71
2018-01-01T00:15:36.763Z,997.69
2018-01-01T00:16:36.738Z,997.68
2018-01-01T00:17:36.715Z,997.67
2018-01-01T00:18:36.693Z,997.72
2018-01-01T00:19:36.671Z,997.81
2018-01-01T00:20:36.648Z,997.79
2018-01-01T00:21:36.626Z,997.80
2018-01-01T00:22:36.604Z,997.79
2018-01-01T00:23:36.580Z,997.80
2018-01-01T00:24:36.557Z,997.85
2018-01-01T00:25:36.535Z,997.82
2018-01-01T00:26:36.514Z,997.87
2018-01-01T00:27:36.491Z,997.85
2018-01-01T00:28:36.467Z,997.77
2018-01-01T00:29:36.445Z,997.75
2018-01-01T00:30:36.423Z,997.69
2018-01-01T00:31:36.400Z,997.68
2018-01-01T00:32:36.377Z,997.58
2018-01-01T00:33:36.354Z,997.54
2018-01-01T00:34:36.332Z,997.45
2018-01-01T00:35:36.310Z,997.51
2018-01-01T00:36:36.287Z,997.43
2018-01-01T00:37:36.264Z,997.47
2018-01-01T00:38:36.241Z,997.54
2018-01-01T00:39:36.220Z,997.69
2018-01-01T00:40:36.196Z,997.60
2018-01-01T00:41:36.174Z,997.62
2018-01-01T00:42:36.152Z,997.61
2018-01-01T00:43:36.130Z,997.70
2018-01-01T00:44:36.106Z,997.60
2018-01-01T00:45:36.084Z,997.55
2018-01-01T00:46:36.062Z,997.55
2018-01-01T00:47:36.040Z,997.53
2018-01-01T00:48:36.016Z,997.57
2018-01-01T00:49:35.993Z,997.60
2018-01-01T00:50:35.972Z,997.46
2018-01-01T00:51:35.949Z,997.50
2018-01-01T00:52:35.926Z,997.53
2018-01-01T00:53:35.904Z,997.49
2018-01-01T00:54:35.882Z,997.55
2018-01-01T00:55:35.860Z,997.50
2018-01-01T00:56:35.837Z,997.51
2018-01-01T00:57:35.820Z,997.50
2018-01-01T00:58:35.792Z,997.49
2018-01-01T00:59:35.769Z,997.54
2018-01-01T01:00:35.747Z,997.42
2018-01-01T01:01:35.725Z,997.38
2018-01-01T01:02:35.703Z,997.39
2018-01-01T01:03:35.681Z,997.50
2018-01-01T01:04:35.658Z,997.43
2018-01-01T01:05:35.636Z,997.42
2018-01-01T01:06:35.613Z,997.42
2018-01-01T01:07:35.591Z,997.40
2018-01-01T01:08:35.568Z,997.52
2018-01-01T01:09:35.545Z,997.44
2018-01-01T01:10:35.523Z,997.44
2018-01-01T01:11:35.502Z,997.41
2018-01-01T01:12:35.479Z,997.44
2018-01-01T01:13:35.456Z,997.38
2018-01-01T01:14:35.434Z,997.39
2018-01-01T01:15:35.412Z,997.38
2018-01-01T01:16:35.388Z,997.38
2018-01-01T01:17:35.366Z,997.36
2018-01-01T01:18:35.344Z,997.41
2018-01-01T01:19:35.321Z,997.38
2018-01-01T01:20:35.299Z,997.39
2018-01-01T01:21:35.276Z,997.35
2018-01-01T01:22:35.253Z,997.38
2018-01-01T01:23:35.232Z,997.33
2018-01-01T01:24:35.207Z,997.31
2018-01-01T01:25:35.186Z,997.36
2018-01-01T01:26:35.165Z,997.35
2018-01-01T01:27:35.142Z,997.41
2018-01-01T01:28:35.118Z,997.40
2018-01-01T01:29:35.096Z,997.39
2018-01-01T01:30:35.074Z,997.47
2018-01-01T01:31:35.052Z,997.47
2018-01-01T01:32:35.029Z,997.43
2018-01-01T01:33:35.006Z,997.40
2018-01-01T01:34:34.984Z,997.44
2018-01-01T01:35:34.962Z,997.45
2018-01-01T01:36:34.939Z,997.43
2018-01-01T01:37:34.917Z,997.35
2018-01-01T01:38:34.895Z,997.39
2018-01-01T01:39:34.872Z,997.37
2018-01-01T01:40:34.849Z,997.40
2018-01-01T01:41:34.827Z,997.41
2018-01-01T01:42:34.804Z,997.47
2018-01-01T01:43:34.781Z,997.51
2018-01-01T01:44:34.759Z,997.42
2018-01-01T01:45:34.736Z,997.48
2018-01-01T01:46:34.714Z,997.49
2018-01-01T01:47:34.692Z,997.50
2018-01-01T01:48:34.669Z,997.48
2018-01-01T01:49:34.647Z,997.43
2018-01-01T01:50:34.625Z,997.45
2018-01-01T01:51:34.603Z,997.42
2018-01-01T01:52:34.578Z,997.46
2018-01-01T01:53:34.557Z,997.55
2018-01-01T01:54:34.534Z,997.46
2018-01-01T01:55:34.511Z,997.65
2018-01-01T01:56:34.488Z,997.44
2018-01-01T01:57:34.466Z,997.57
2018-01-01T01:58:34.444Z,997.50
2018-01-01T01:59:34.421Z,997.52
2018-01-01T02:00:34.398Z,997.55
2018-01-01T02:01:34.376Z,997.58
2018-01-01T02:02:34.354Z,997.68
2018-01-01T02:03:34.331Z,997.56
2018-01-01T02:04:34.308Z,997.61
2018-01-01T02:05:34.285Z,997.67
2018-01-01T02:06:34.263Z,997.72
2018-01-01T02:07:34.240Z,997.61
2018-01-01T02:08:34.217Z,997.65
2018-01-01T02:09:34.195Z,997.66
2018-01-01T02:10:34.172Z,997.70
2018-01-01T02:11:34.150Z,997.72
2018-01-01T02:12:34.126Z,997.82
2018-01-01T02:13:34.104Z,997.86
2018-01-01T02:14:34.081Z,997.84
2018-01-01T02:15:34.059Z,997.89
2018-01-01T02:16:34.035Z,997.88
2018-01-01T02:17:34.012Z,997.77
2018-01-01T02:18:33.990Z,997.86
2018-01-01T02:19:33.968Z,997.93
2018-01-01T02:20:33.945Z,997.88
2018-01-01T02:21:33.921Z,997.89
2018-01-01T02:22:33.899Z,997.92
2018-01-01T02:23:33.876Z,998.01
2018-01-01T02:24:33.853Z,998.05
2018-01-01T02:25:33.829Z,998.08
2018-01-01T02:26:33.808Z,998.19
2018-01-01T02:27:33.785Z,998.18
2018-01-01T02:28:33.761Z,998.17
2018-01-01T02:29:33.738Z,998.21
2018-01-01T02:30:33.716Z,998.17
2018-01-01T02:31:33.693Z,998.14
2018-01-01T02:32:33.670Z,998.20
2018-01-01T02:33:33.648Z,998.26
2018-01-01T02:34:33.625Z,998.28
2018-01-01T02:35:33.602Z,998.37
2018-01-01T02:36:33.579Z,998.36
2018-01-01T02:37:33.556Z,998.42
2018-01-01T02:38:33.534Z,998.44
2018-01-01T02:39:33.511Z,998.45
2018-01-01T02:40:33.486Z,998.47
2018-01-01T02:41:33.468Z,998.39
2018-01-01T02:42:33.441Z,998.34
2018-01-01T02:43:33.419Z,998.30
2018-01-01T02:44:33.395Z,998.32
2018-01-01T02:45:33.372Z,998.39
2018-01-01T02:46:33.350Z,998.33
2018-01-01T02:47:33.327Z,998.35
2018-01-01T02:48:33.303Z,998.36
2018-01-01T02:49:33.280Z,998.35
2018-01-01T02:50:33.257Z,998.35
2018-01-01T02:51:33.236Z,998.36
2018-01-01T02:52:33.212Z,998.42
2018-01-01T02:53:33.189Z,998.35
2018-01-01T02:54:33.166Z,998.40
2018-01-01T02:55:33.147Z,998.30
2018-01-01T02:56:33.120Z,998.35
2018-01-01T02:57:33.098Z,998.40
2018-01-01T02:58:33.074Z,998.36
2018-01-01T02:59:33.052Z,998.37
2018-01-01T03:00:33.029Z,998.33
2018-01-01T03:01:33.006Z,998.37
2018-01-01T03:02:32.983Z,998.40
2018-01-01T03:03:32.961Z,998.37
2018-01-01T03:04:32.937Z,998.39
2018-01-01T03:05:32.915Z,998.36
2018-01-01T03:06:32.892Z,998.40
2018-01-01T03:07:32.869Z,998.42
2018-01-01T03:08:32.845Z,998.43
2018-01-01T03:09:32.822Z,998.52
2018-01-01T03:10:32.800Z,998.60
2018-01-01T03:11:32.776Z,998.58
2018-01-01T03:12:32.753Z,998.57
2018-01-01T03:13:32.731Z,998.56
2018-01-01T03:14:32.707Z,998.56
2018-01-01T03:15:32.685Z,998.62
2018-01-01T03:16:32.661Z,998.66
2018-01-01T03:17:32.638Z,998.63
2018-01-01T03:18:32.615Z,998.68
2018-01-01T03:19:32.593Z,998.68
2018-01-01T03:20:32.569Z,998.66
2018-01-01T03:21:32.547Z,998.73
2018-01-01T03:22:32.524Z,998.75
2018-01-01T03:23:32.500Z,998.79
2018-01-01T03:24:32.477Z,998.80
2018-01-01T03:25:32.454Z,998.85
2018-01-01T03:26:32.432Z,998.78
2018-01-01T03:27:32.409Z,998.85
2018-01-01T03:28:32.385Z,998.95
2018-01-01T03:29:32.362Z,998.94
2018-01-01T03:30:32.341Z,999.05
2018-01-01T03:31:32.317Z,999.06
2018-01-01T03:32:32.294Z,998.99
2018-01-01T03:33:32.271Z,999.00
2018-01-01T03:34:32.248Z,999.05
2018-01-01T03:35:32.226Z,999.09
2018-01-01T03:36:32.201Z,999.13
2018-01-01T03:37:32.180Z,999.13
2018-01-01T03:38:32.157Z,999.20
2018-01-01T03:39:32.134Z,999.08
2018-01-01T03:40:32.111Z,999.03
2018-01-01T03:41:32.088Z,999.12
2018-01-01T03:42:32.066Z,999.11
2018-01-01T03:43:32.043Z,999.18
2018-01-01T03:44:32.021Z,999.23
2018-01-01T03:45:31.997Z,999.27
2018-01-01T03:46:31.974Z,999.21
2018-01-01T03:47:31.952Z,999.25
2018-01-01T03:48:31.928Z,999.25
2018-01-01T03:49:31.905Z,999.51
2018-01-01T03:50:31.882Z,999.32
2018-01-01T03:51:31.859Z,999.35
2018-01-01T03:52:31.836Z,999.28
2018-01-01T03:53:31.813Z,999.30
2018-01-01T03:54:31.790Z,999.35
2018-01-01T03:55:31.767Z,999.41
2018-01-01T03:56:31.743Z,999.49
2018-01-01T03:57:31.721Z,999.47
2018-01-01T03:58:31.698Z,999.44
2018-01-01T03:59:31.675Z,999.42
2018-01-01T04:00:31.651Z,999.41
2018-01-01T04:01:31.628Z,999.48
2018-01-01T04:02:31.605Z,999.52
2018-01-01T04:03:31.582Z,999.57
2018-01-01T04:04:31.559Z,999.53
2018-01-01T04:05:31.536Z,999.53
2018-01-01T04:06:31.513Z,999.50
2018-01-01T04:07:31.490Z,999.55
2018-01-01T04:08:31.466Z,999.64
2018-01-01T04:09:31.444Z,999.52
2018-01-01T04:10:31.421Z,999.55
2018-01-01T04:11:31.398Z,999.61
2018-01-01T04:12:31.375Z,999.69
2018-01-01T04:13:31.352Z,999.70
2018-01-01T04:14:31.329Z,999.63
2018-01-01T04:15:31.306Z,999.68
2018-01-01T04:16:31.283Z,999.66
2018-01-01T04:17:31.260Z,999.67
2018-01-01T04:18:31.239Z,999.70
2018-01-01T04:19:31.214Z,999.75
2018-01-01T04:20:31.190Z,999.86
2018-01-01T04:21:31.168Z,999.85
2018-01-01T04:22:31.145Z,999.93
2018-01-01T04:23:31.128Z,999.86
2018-01-01T04:24:31.099Z,999.87
2018-01-01T04:25:31.076Z,999.87
2018-01-01T04:26:31.053Z,999.90
2018-01-01T04:27:31.031Z,999.90
2018-01-01T04:28:31.007Z,999.95
2018-01-01T04:29:30.987Z,999.89
2018-01-01T04:30:30.962Z,999.88
2018-01-01T04:31:30.939Z,999.83
2018-01-01T04:32:30.916Z,999.85
2018-01-01T04:33:30.894Z,999.79
2018-01-01T04:34:30.871Z,1000.03
2018-01-01T04:35:30.848Z,999.98
2018-01-01T04:36:30.824Z,1000.06
2018-01-01T04:37:30.802Z,1000.10
2018-01-01T04:38:30.779Z,1000.01
2018-01-01T04:39:30.757Z,1000.05
2018-01-01T04:40:30.734Z,999.95
2018-01-01T04:41:30.712Z,999.87
2018-01-01T04:42:30.688Z,999.86
2018-01-01T04:43:30.666Z,1000.01
2018-01-01T04:44:30.643Z,999.96
2018-01-01T04:45:30.620Z,1000.07
2018-01-01T04:46:30.598Z,1000.06
2018-01-01T04:47:30.574Z,1000.07
2018-01-01T04:48:30.556Z,1000.06
2018-01-01T04:49:30.528Z,1000.04
2018-01-01T04:50:30.506Z,1000.09
2018-01-01T04:51:30.483Z,1000.20
2018-01-01T04:52:30.459Z,1000.18
2018-01-01T04:53:30.440Z,1000.19
2018-01-01T04:54:30.414Z,1000.19
2018-01-01T04:55:30.392Z,1000.15
2018-01-01T04:56:30.368Z,1000.19
2018-01-01T04:57:30.345Z,1000.19
2018-01-01T04:58:30.323Z,1000.14
2018-01-01T04:59:30.300Z,1000.13
2018-01-01T05:00:30.277Z,1000.15
2018-01-01T05:01:30.254Z,1000.11
2018-01-01T05:02:30.232Z,1000.12
2018-01-01T05:03:30.209Z,1000.11
2018-01-01T05:04:30.185Z,1000.15
2018-01-01T05:05:30.162Z,1000.18
2018-01-01T05:06:30.140Z,1000.21
2018-01-01T05:07:30.117Z,1000.23
2018-01-01T05:08:30.094Z,1000.21
2018-01-01T05:09:30.072Z,1000.18
2018-01-01T05:10:30.049Z,1000.23
2018-01-01T05:11:30.027Z,1000.24
2018-01-01T05:12:30.005Z,1000.24
2018-01-01T05:13:29.981Z,1000.31
2018-01-01T05:14:29.958Z,1000.29
2018-01-01T05:15:29.936Z,1000.28
2018-01-01T05:16:29.912Z,1000.35
2018-01-01T05:17:29.891Z,1000.32
2018-01-01T05:18:29.867Z,1000.33
2018-01-01T05:19:29.844Z,1000.38
2018-01-01T05:20:29.821Z,1000.36
2018-01-01T05:21:29.798Z,1000.44
2018-01-01T05:22:29.775Z,1000.44
2018-01-01T05:23:29.753Z,1000.52
2018-01-01T05:24:29.729Z,1000.50
2018-01-01T05:25:29.706Z,1000.55
2018-01-01T05:26:29.683Z,1000.45
2018-01-01T05:27:29.661Z,1000.51
2018-01-01T05:28:29.637Z,1000.42
2018-01-01T05:29:29.614Z,1000.43
2018-01-01T05:30:29.592Z,1000.45
2018-01-01T05:31:29.569Z,1000.49
2018-01-01T05:32:29.546Z,1000.45
2018-01-01T05:33:29.523Z,1000.50
2018-01-01T05:34:29.502Z,1000.54
2018-01-01T05:35:29.478Z,1000.65
2018-01-01T05:36:29.454Z,1000.71
2018-01-01T05:37:29.431Z,1000.82
2018-01-01T05:38:29.409Z,1000.82
2018-01-01T05:39:29.449Z,1000.83
2018-01-01T05:40:29.363Z,1000.85
2018-01-01T05:41:29.342Z,1000.84
2018-01-01T05:42:29.317Z,1000.93
2018-01-01T05:43:29.294Z,1000.87
2018-01-01T05:44:29.270Z,1000.85
2018-01-01T05:45:29.248Z,1000.88
2018-01-01T05:46:29.226Z,1000.84
2018-01-01T05:47:29.203Z,1000.80
2018-01-01T05:48:29.179Z,1000.87
2018-01-01T05:49:29.156Z,1000.85
2018-01-01T05:50:29.134Z,1000.96
2018-01-01T05:51:29.111Z,1001.01
2018-01-01T05:52:29.088Z,1001.07
2018-01-01T05:53:29.065Z,1001.14
2018-01-01T05:54:29.041Z,1001.04
2018-01-01T05:55:29.019Z,1000.95
2018-01-01T05:56:28.996Z,1000.97
2018-01-01T05:57:28.973Z,1001.01
2018-01-01T05:58:28.950Z,1001.06
2018-01-01T05:59:28.929Z,1001.04
2018-01-01T06:00:28.904Z,1000.98
2018-01-01T06:01:28.882Z,1000.93
2018-01-01T06:02:28.858Z,1000.91
2018-01-01T06:03:28.836Z,1000.95
2018-01-01T06:04:28.813Z,1001.06
2018-01-01T06:05:28.789Z,1001.06
2018-01-01T06:06:28.770Z,1001.06
2018-01-01T06:07:28.744Z,1001.09
2018-01-01T06:08:28.724Z,1001.11
2018-01-01T06:09:28.698Z,1001.22
2018-01-01T06:10:28.675Z,1001.23
2018-01-01T06:11:28.652Z,1001.25
2018-01-01T06:12:28.629Z,1001.22
2018-01-01T06:13:28.606Z,1001.28
2018-01-01T06:14:28.584Z,1001.28
2018-01-01T06:15:28.561Z,1001.26
2018-01-01T06:16:28.537Z,1001.26
2018-01-01T06:17:28.514Z,1001.29
2018-01-01T06:18:28.492Z,1001.30
2018-01-01T06:19:28.468Z,1001.31
2018-01-01T06:20:28.446Z,1001.30
2018-01-01T06:21:28.423Z,1001.34
2018-01-01T06:22:28.401Z,1001.34
2018-01-01T06:23:28.378Z,1001.31
2018-01-01T06:24:28.354Z,1001.35
2018-01-01T06:25:28.332Z,1001.39
2018-01-01T06:26:28.309Z,1001.37
2018-01-01T06:27:28.287Z,1001.39
2018-01-01T06:28:28.264Z,1001.40
2018-01-01T06:29:28.240Z,1001.41
2018-01-01T06:30:28.218Z,1001.46
2018-01-01T06:31:28.195Z,1001.47
2018-01-01T06:32:28.172Z,1001.47
2018-01-01T06:33:28.147Z,1001.43
2018-01-01T06:34:28.126Z,1001.44
2018-01-01T06:35:28.103Z,1001.43
2018-01-01T06:36:28.082Z,1001.40
2018-01-01T06:37:28.057Z,1001.49
2018-01-01T06:38:28.035Z,1001.45
2018-01-01T06:39:28.012Z,1001.47
2018-01-01T06:40:27.988Z,1001.52
2018-01-01T06:41:27.966Z,1001.55
2018-01-01T06:42:27.943Z,1001.55
2018-01-01T06:43:27.921Z,1001.52
2018-01-01T06:44:27.897Z,1001.54
2018-01-01T06:45:27.874Z,1001.59
2018-01-01T06:46:27.852Z,1001.64
2018-01-01T06:47:27.829Z,1001.64
2018-01-01T06:48:27.805Z,1001.70
2018-01-01T06:49:27.783Z,1001.70
2018-01-01T06:50:27.760Z,1001.69
2018-01-01T06:51:27.737Z,1001.70
2018-01-01T06:52:27.713Z,1001.69
2018-01-01T06:53:27.691Z,1001.71
2018-01-01T06:54:27.672Z,1001.70
2018-01-01T06:55:27.646Z,1001.73
2018-01-01T06:56:27.622Z,1001.65
2018-01-01T06:57:27.600Z,1001.67
2018-01-01T06:58:27.577Z,1001.67
2018-01-01T06:59:27.554Z,1001.64
2018-01-01T07:00:27.531Z,1001.66
2018-01-01T07:01:27.508Z,1001.73
2018-01-01T07:02:27.485Z,1001.67
2018-01-01T07:03:27.463Z,1001.68
2018-01-01T07:04:27.439Z,1001.64
2018-01-01T07:05:27.417Z,1001.67
2018-01-01T07:06:27.394Z,1001.68
2018-01-01T07:07:27.374Z,1001.71
2018-01-01T07:08:27.348Z,1001.74
2018-01-01T07:09:27.325Z,1001.73
2018-01-01T07:10:27.302Z,1001.75
2018-01-01T07:11:27.280Z,1001.73
2018-01-01T07:12:27.257Z,1001.75
2018-01-01T07:13:27.233Z,1001.80
2018-01-01T07:14:27.211Z,1001.79
2018-01-01T07:15:27.187Z,1001.69
2018-01-01T07:16:27.165Z,1001.78
2018-01-01T07:17:27.142Z,1001.81
2018-01-01T07:18:27.119Z,1001.88
2018-01-01T07:19:27.096Z,1001.79
2018-01-01T07:20:27.081Z,1001.79
2018-01-01T07:21:27.050Z,1001.82
2018-01-01T07:22:27.027Z,1001.86
2018-01-01T07:23:27.005Z,1001.78
2018-01-01T07:24:26.981Z,1001.85
2018-01-01T07:25:26.958Z,1001.88
2018-01-01T07:26:26.935Z,1001.94
2018-01-01T07:27:26.913Z,1001.82
2018-01-01T07:28:26.889Z,1001.86
2018-01-01T07:29:26.866Z,1001.85
2018-01-01T07:30:26.844Z,1001.91
2018-01-01T07:31:26.820Z,1001.87
2018-01-01T07:32:26.797Z,1001.93
2018-01-01T07:33:26.774Z,1001.97
2018-01-01T07:34:26.752Z,1001.95
2018-01-01T07:35:26.729Z,1001.93
2018-01-01T07:36:26.705Z,1001.93
2018-01-01T07:37:26.682Z,1001.96
2018-01-01T07:38:26.659Z,1001.93
2018-01-01T07:39:26.636Z,1001.99
2018-01-01T07:40:26.613Z,1002.01
2018-01-01T07:41:26.590Z,1001.90
2018-01-01T07:42:26.567Z,1002.01
2018-01-01T07:43:26.545Z,1002.01
2018-01-01T07:44:26.521Z,1002.04
2018-01-01T07:45:26.498Z,1002.04
2018-01-01T07:46:26.475Z,1002.08
2018-01-01T07:47:26.453Z,1002.07
2018-01-01T07:48:26.429Z,1002.03
2018-01-01T07:49:26.406Z,1002.07
2018-01-01T07:50:26.384Z,1002.09
2018-01-01T07:51:26.361Z,1002.09
2018-01-01T07:52:26.336Z,1002.08
2018-01-01T07:53:26.314Z,1002.14
2018-01-01T07:54:26.291Z,1002.08
2018-01-01T07:55:26.268Z,1002.12
2018-01-01T07:56:26.245Z,1002.13
2018-01-01T07:57:26.222Z,1002.12
2018-01-01T07:58:26.199Z,1002.06
2018-01-01T07:59:26.179Z,1002.16
2018-01-01T08:00:26.153Z,1002.13
2018-01-01T08:01:26.129Z,1002.15
2018-01-01T08:02:26.107Z,1002.07
2018-01-01T08:03:26.084Z,1002.14
2018-01-01T08:04:26.061Z,1002.12
2018-01-01T08:05:26.038Z,1002.08
2018-01-01T08:06:26.015Z,1002.14
2018-01-01T08:07:25.993Z,1002.10
2018-01-01T08:08:25.969Z,1002.13
2018-01-01T08:09:25.949Z,1002.12
2018-01-01T08:10:25.924Z,1002.20
2018-01-01T08:11:25.901Z,1002.14
2018-01-01T08:12:25.877Z,1002.11
2018-01-01T08:13:25.861Z,1002.12
2018-01-01T08:14:25.837Z,1002.08
2018-01-01T08:15:25.809Z,1002.09
2018-01-01T08:16:25.786Z,1002.06
2018-01-01T08:17:25.763Z,1002.10
2018-01-01T08:18:25.740Z,1002.05
2018-01-01T08:19:25.718Z,1002.09
2018-01-01T08:20:25.694Z,1002.05
2018-01-01T08:21:25.671Z,1002.05
2018-01-01T08:22:25.648Z,1002.02
2018-01-01T08:23:25.625Z,1001.97
2018-01-01T08:24:25.602Z,1001.98
2018-01-01T08:25:25.579Z,1002.04
2018-01-01T08:26:25.555Z,1002.06
2018-01-01T08:27:25.533Z,1002.07
2018-01-01T08:28:25.510Z,1002.08
2018-01-01T08:29:25.486Z,1002.07
2018-01-01T08:30:25.462Z,1002.08
2018-01-01T08:31:25.440Z,1002.16
2018-01-01T08:32:25.416Z,1002.12
2018-01-01T08:33:25.394Z,1002.12
2018-01-01T08:34:25.371Z,1002.12
2018-01-01T08:35:25.349Z,1002.14
2018-01-01T08:36:25.334Z,1002.17
2018-01-01T08:37:25.303Z,1002.11
2018-01-01T08:38:25.280Z,1002.08
2018-01-01T08:39:25.257Z,1002.11
2018-01-01T08:40:25.233Z,1002.10
2018-01-01T08:41:25.210Z,1002.07
2018-01-01T08:42:25.190Z,1002.13
2018-01-01T08:43:25.165Z,1002.13
2018-01-01T08:44:25.141Z,1002.15
2018-01-01T08:45:25.118Z,1002.10
2018-01-01T08:46:25.095Z,1002.16
2018-01-01T08:47:25.073Z,1002.22
2018-01-01T08:48:25.049Z,1002.24
2018-01-01T08:49:25.026Z,1002.20
2018-01-01T08:50:25.003Z,1002.22
2018-01-01T08:51:24.980Z,1002.21
2018-01-01T08:52:24.956Z,1002.22
2018-01-01T08:53:24.934Z,1002.21
2018-01-01T08:54:24.913Z,1002.23
2018-01-01T08:55:24.888Z,1002.21
2018-01-01T08:56:24.865Z,1002.24
2018-01-01T08:57:24.842Z,1002.22
2018-01-01T08:58:24.821Z,1002.20
2018-01-01T08:59:24.797Z,1002.26
2018-01-01T09:00:24.781Z,1002.24
2018-01-01T09:01:24.751Z,1002.33
2018-01-01T09:02:24.729Z,1002.24
2018-01-01T09:03:24.706Z,1002.35
2018-01-01T09:04:24.683Z,1002.33
2018-01-01T09:05:24.661Z,1002.34
2018-01-01T09:06:24.638Z,1002.30
2018-01-01T09:07:24.615Z,1002.30
2018-01-01T09:08:24.592Z,1002.24
2018-01-01T09:09:24.570Z,1002.29
2018-01-01T09:10:24.548Z,1002.19
2018-01-01T09:11:24.525Z,1002.24
2018-01-01T09:12:24.504Z,1002.22
2018-01-01T09:13:24.478Z,1002.17
2018-01-01T09:14:24.456Z,1002.17
2018-01-01T09:15:24.434Z,1002.20
2018-01-01T09:16:24.410Z,1002.15
2018-01-01T09:17:24.388Z,1002.07
2018-01-01T09:18:24.365Z,1002.17
2018-01-01T09:19:24.342Z,1002.20
2018-01-01T09:20:24.319Z,1002.19
2018-01-01T09:21:24.297Z,1002.20
2018-01-01T09:22:24.304Z,1002.18
2018-01-01T09:23:24.251Z,1002.14
2018-01-01T09:24:24.229Z,1002.16
2018-01-01T09:25:24.206Z,1002.15
2018-01-01T09:26:24.184Z,1002.22
2018-01-01T09:27:24.161Z,1002.26
2018-01-01T09:28:24.139Z,1002.28
2018-01-01T09:29:24.116Z,1002.17
2018-01-01T09:30:24.094Z,1002.24
2018-01-01T09:31:24.072Z,1002.27
2018-01-01T09:32:24.048Z,1002.21
2018-01-01T09:33:24.026Z,1002.20
2018-01-01T09:34:24.004Z,1002.14
2018-01-01T09:35:23.981Z,1002.11
2018-01-01T09:36:23.958Z,1002.10
2018-01-01T09:37:23.938Z,1002.13
2018-01-01T09:38:23.914Z,1002.11
2018-01-01T09:39:23.892Z,1002.11
2018-01-01T09:40:23.868Z,1002.09
2018-01-01T09:41:23.846Z,1002.05
2018-01-01T09:42:23.824Z,1002.01
2018-01-01T09:43:23.802Z,1002.10
2018-01-01T09:44:23.779Z,1002.10
2018-01-01T09:45:23.757Z,1002.04
2018-01-01T09:46:23.733Z,1002.07
2018-01-01T09:47:23.713Z,1002.05
2018-01-01T09:48:23.690Z,1002.01
2018-01-01T09:49:23.669Z,1002.07
2018-01-01T09:50:23.681Z,1002.03
2018-01-01T09:51:23.625Z,1002.07
2018-01-01T09:52:23.602Z,1002.02
2018-01-01T09:53:23.580Z,1001.97
2018-01-01T09:54:23.562Z,1001.97
2018-01-01T09:55:23.536Z,1001.97
2018-01-01T09:56:23.514Z,1001.90
2018-01-01T09:57:23.491Z,1001.94
2018-01-01T09:58:23.474Z,1001.94
2018-01-01T09:59:23.449Z,1001.80
2018-01-01T10:00:23.427Z,1001.85
2018-01-01T10:01:23.405Z,1001.93
2018-01-01T10:02:23.384Z,1001.90
2018-01-01T10:03:23.362Z,1001.88
2018-01-01T10:04:23.339Z,1001.88
2018-01-01T10:05:23.318Z,1001.86
2018-01-01T10:06:23.296Z,1001.89
2018-01-01T10:07:23.276Z,1001.92
2018-01-01T10:08:23.253Z,1001.81
2018-01-01T10:09:23.232Z,1001.84
2018-01-01T10:10:23.211Z,1001.81
2018-01-01T10:11:23.190Z,1001.90
2018-01-01T10:12:23.171Z,1001.83
2018-01-01T10:13:23.146Z,1001.80
2018-01-01T10:14:23.126Z,1001.84
2018-01-01T10:15:23.104Z,1001.84
2018-01-01T10:16:23.082Z,1001.82
2018-01-01T10:17:23.061Z,1001.83
2018-01-01T10:18:23.040Z,1001.84
2018-01-01T10:19:23.019Z,1001.87
2018-01-01T10:20:22.997Z,1001.81
2018-01-01T10:21:22.976Z,1001.87
2018-01-01T10:22:22.955Z,1001.77
2018-01-01T10:23:22.935Z,1001.76
2018-01-01T10:24:22.913Z,1001.77
2018-01-01T10:25:22.894Z,1001.74
2018-01-01T10:26:22.872Z,1001.74
2018-01-01T10:27:22.850Z,1001.77
2018-01-01T10:28:22.828Z,1001.75
2018-01-01T10:29:22.808Z,1001.77
2018-01-01T10:30:22.787Z,1001.73
2018-01-01T10:31:22.768Z,1001.65
2018-01-01T10:32:22.746Z,1001.69
2018-01-01T10:33:22.725Z,1001.63
2018-01-01T10:34:22.703Z,1001.67
2018-01-01T10:35:22.683Z,1001.67
2018-01-01T10:36:22.660Z,1001.64
2018-01-01T10:37:22.641Z,1001.69
2018-01-01T10:38:22.620Z,1001.53
2018-01-01T10:39:22.599Z,1001.66
2018-01-01T10:40:22.578Z,1001.58
2018-01-01T10:41:22.557Z,1001.60
2018-01-01T10:42:22.536Z,1001.59
2018-01-01T10:43:22.516Z,1001.58
2018-01-01T10:44:22.495Z,1001.63
2018-01-01T10:45:22.473Z,1001.59
2018-01-01T10:46:22.453Z,1001.58
2018-01-01T10:47:22.434Z,1001.59
2018-01-01T10:48:22.410Z,1001.57
2018-01-01T10:49:22.389Z,1001.55
2018-01-01T10:50:22.371Z,1001.54
2018-01-01T10:51:22.357Z,1001.50
2018-01-01T10:52:22.326Z,1001.51
2018-01-01T10:53:22.305Z,1001.51
2018-01-01T10:54:22.285Z,1001.46
2018-01-01T10:55:22.264Z,1001.50
2018-01-01T10:56:22.242Z,1001.50
2018-01-01T10:57:22.221Z,1001.43
2018-01-01T10:58:22.201Z,1001.47
2018-01-01T10:59:22.180Z,1001.49
2018-01-01T11:00:22.158Z,1001.49
2018-01-01T11:01:22.137Z,1001.39
2018-01-01T11:02:22.116Z,1001.32
2018-01-01T11:03:22.095Z,1001.35
2018-01-01T11:04:22.074Z,1001.34
2018-01-01T11:05:22.053Z,1001.28
2018-01-01T11:06:22.033Z,1001.31
2018-01-01T11:07:22.012Z,1001.23
2018-01-01T11:08:21.989Z,1001.20
2018-01-01T11:09:21.969Z,1001.16
2018-01-01T11:10:21.949Z,1001.21
2018-01-01T11:11:21.928Z,1001.22
2018-01-01T11:12:21.905Z,1001.18
2018-01-01T11:13:21.886Z,1001.18
2018-01-01T11:14:21.868Z,1001.20
2018-01-01T11:15:21.844Z,1001.21
2018-01-01T11:16:21.827Z,1001.15
2018-01-01T11:17:21.846Z,1001.17
2018-01-01T11:18:22.734Z,1001.15
2018-01-01T11:19:21.763Z,1001.16
2018-01-01T11:20:21.742Z,1001.15
2018-01-01T11:21:21.721Z,1001.10
2018-01-01T11:22:21.726Z,1001.13
2018-01-01T11:23:21.680Z,1001.04
2018-01-01T11:24:21.659Z,1001.09
2018-01-01T11:25:21.645Z,1001.10
2018-01-01T11:26:21.618Z,1001.03
2018-01-01T11:27:21.598Z,1001.06
2018-01-01T11:28:21.576Z,1000.97
2018-01-01T11:29:21.556Z,1000.97
2018-01-01T11:30:21.606Z,1000.98
2018-01-01T11:31:21.516Z,1000.93
2018-01-01T11:32:21.494Z,1000.89
2018-01-01T11:33:21.474Z,1000.89
2018-01-01T11:34:21.453Z,1000.89
2018-01-01T11:35:21.433Z,1000.81
2018-01-01T11:36:21.412Z,1000.77
2018-01-01T11:37:21.391Z,1000.80
2018-01-01T11:38:21.371Z,1000.76
2018-01-01T11:39:21.350Z,1000.80
2018-01-01T11:40:21.329Z,1000.71
2018-01-01T11:41:21.308Z,1000.72
2018-01-01T11:42:21.287Z,1000.71
2018-01-01T11:43:21.268Z,1000.70
2018-01-01T11:44:21.248Z,1000.67
2018-01-01T11:45:21.226Z,1000.63
2018-01-01T11:46:21.206Z,1000.66
2018-01-01T11:47:21.187Z,1000.64
2018-01-01T11:48:21.164Z,1000.65
2018-01-01T11:49:21.144Z,1000.60
2018-01-01T11:50:21.123Z,1000.58
2018-01-01T11:51:21.102Z,1000.53
2018-01-01T11:52:21.081Z,1000.51
2018-01-01T11:53:21.061Z,1000.49
2018-01-01T11:54:21.041Z,1000.46
2018-01-01T11:55:21.020Z,1000.47
2018-01-01T11:56:20.999Z,1000.45
2018-01-01T11:57:20.979Z,1000.47
2018-01-01T11:58:20.958Z,1000.42
2018-01-01T11:59:20.938Z,1000.42
2018-01-01T12:00:20.918Z,1000.39
2018-01-01T12:01:20.898Z,1000.35
2018-01-01T12:02:20.877Z,1000.32
2018-01-01T12:03:20.857Z,1000.30
2018-01-01T12:04:20.837Z,1000.33
2018-01-01T12:05:20.817Z,1000.31
2018-01-01T12:06:20.797Z,1000.23
2018-01-01T12:07:20.776Z,1000.25
2018-01-01T12:08:20.757Z,1000.21
2018-01-01T12:09:20.737Z,1000.22
2018-01-01T12:10:20.717Z,1000.15
2018-01-01T12:11:20.697Z,1000.25
2018-01-01T12:12:20.680Z,1000.20
2018-01-01T12:13:20.657Z,1000.22
2018-01-01T12:14:20.638Z,1000.16